Time;durP1;ratioP1;P1;durP2;ratioP2;P2;SDS_P1;SDS_P2;PMS_P1;PMS_P2;Temp;Humidity;BMP_temperature;BMP_pressure;BME280_temperature;BME280_humidity;BME280_pressure;Samples;Min_cycle;Max_cycle;Signal;HPM_P1;HPM_P2
2021/12/09 00:00:49;;;;;;;34.28;21.67;;;;;;;5.74;100.00;100719.69;4938649;29;20135;-72
2021/12/09 00:03:40;;;;;;;35.10;20.10;;;;;;;5.44;100.00;100717.88;4924461;29;20024;-71
2021/12/09 00:06:29;;;;;;;34.15;20.45;;;;;;;5.71;100.00;100711.03;4924618;29;20020;-73
2021/12/09 00:09:18;;;;;;;34.88;20.85;;;;;;;5.81;100.00;100713.69;4938678;29;20036;-71
2021/12/09 00:12:05;;;;;;;37.90;22.90;;;;;;;5.90;100.00;100729.28;4925014;29;20103;-70
2021/12/09 00:14:50;;;;;;;36.42;22.58;;;;;;;5.92;100.00;100735.38;4937640;29;20024;-70
2021/12/09 00:17:36;;;;;;;38.05;22.83;;;;;;;5.93;100.00;100724.09;4937812;29;20039;-72
2021/12/09 00:20:22;;;;;;;33.92;21.52;;;;;;;5.88;100.00;100730.16;4937983;29;20035;-71
2021/12/09 00:23:08;;;;;;;34.05;21.02;;;;;;;5.50;100.00;100732.63;4937475;29;20115;-72
2021/12/09 00:25:54;;;;;;;34.33;21.48;;;;;;;5.73;100.00;100746.56;4937993;29;20106;-71
2021/12/09 00:28:40;;;;;;;31.20;20.58;;;;;;;5.72;100.00;100747.44;4923969;29;20028;-72
2021/12/09 00:31:26;;;;;;;34.03;20.80;;;;;;;5.71;100.00;100739.63;4923098;29;20365;-71
2021/12/09 00:34:12;;;;;;;33.28;22.30;;;;;;;5.83;100.00;100742.28;4937987;29;20087;-71
2021/12/09 00:37:23;;;;;;;34.88;22.42;;;;;;;5.85;100.00;100743.16;4936622;29;20066;-71
2021/12/09 00:40:09;;;;;;;36.05;21.42;;;;;;;5.74;100.00;100750.03;4924431;29;20472;-72
2021/12/09 00:42:54;;;;;;;31.70;20.70;;;;;;;5.74;100.00;100752.66;4937385;29;20039;-72
2021/12/09 00:45:41;;;;;;;34.28;20.83;;;;;;;5.69;100.00;100762.13;4923263;29;20051;-71
2021/12/09 00:48:27;;;;;;;31.50;20.60;;;;;;;5.83;100.00;100763.94;4938349;29;20031;-72
2021/12/09 00:51:13;;;;;;;32.88;19.83;;;;;;;5.57;100.00;100775.09;4937235;29;20023;-71
2021/12/09 00:53:58;;;;;;;29.88;19.42;;;;;;;5.54;100.00;100769.91;4922937;29;20237;-72
2021/12/09 00:56:44;;;;;;;33.05;20.05;;;;;;;5.54;100.00;100768.16;4937600;29;20027;-70
2021/12/09 00:59:30;;;;;;;30.45;19.17;;;;;;;5.55;100.00;100774.22;4937007;29;20134;-71
2021/12/09 01:02:16;;;;;;;31.55;20.08;;;;;;;5.50;100.00;100773.34;4922948;29;20059;-72
2021/12/09 01:05:04;;;;;;;32.97;20.02;;;;;;;5.55;100.00;100771.63;4922427;29;20032;-71
2021/12/09 01:07:50;;;;;;;30.08;19.58;;;;;;;5.72;100.00;100776.03;4937251;29;20114;-72
2021/12/09 01:10:37;;;;;;;29.02;19.05;;;;;;;5.82;100.00;100771.75;4937328;29;20437;-72
2021/12/09 01:13:23;;;;;;;31.65;19.60;;;;;;;5.82;100.00;100770.00;4937060;29;20445;-72
2021/12/09 01:16:09;;;;;;;31.13;19.45;;;;;;;5.72;100.00;100770.81;4922858;29;20078;-71
2021/12/09 01:18:56;;;;;;;29.58;19.80;;;;;;;5.75;100.00;100785.56;4938022;29;20074;-72
2021/12/09 01:21:42;;;;;;;33.38;20.08;;;;;;;5.52;100.00;100777.69;4936853;29;20460;-71
2021/12/09 01:24:28;;;;;;;31.70;20.15;;;;;;;5.44;100.00;100784.59;4936814;29;20038;-71
2021/12/09 01:27:14;;;;;;;32.72;20.40;;;;;;;5.62;100.00;100787.25;4937369;29;20024;-72
2021/12/09 01:30:07;;;;;;;32.72;20.77;;;;;;;5.43;100.00;100790.66;4936707;29;20513;-71
2021/12/09 01:32:55;;;;;;;34.63;21.25;;;;;;;5.27;100.00;100776.72;4937001;29;20035;-71
2021/12/09 01:35:46;;;;;;;32.90;19.85;;;;;;;5.49;100.00;100780.25;4936963;29;20038;-71
2021/12/09 01:38:33;;;;;;;33.35;20.77;;;;;;;5.19;100.00;100778.41;4937080;29;20031;-72
2021/12/09 01:41:19;;;;;;;32.70;21.30;;;;;;;5.19;100.00;100772.34;4936636;29;20375;-71
2021/12/09 01:44:05;;;;;;;33.22;20.83;;;;;;;5.20;100.00;100769.72;4936839;29;20391;-72
2021/12/09 01:46:52;;;;;;;34.55;21.50;;;;;;;5.14;100.00;100763.66;4936913;29;20468;-72
2021/12/09 01:49:38;;;;;;;34.72;21.77;;;;;;;5.34;100.00;100762.00;4922737;29;20032;-72
2021/12/09 01:52:24;;;;;;;34.42;21.73;;;;;;;5.52;100.00;100758.63;4936380;29;20032;-71
2021/12/09 01:55:13;;;;;;;38.40;24.02;;;;;;;5.21;100.00;100761.09;4936662;29;20027;-72
2021/12/09 01:58:00;;;;;;;39.88;24.52;;;;;;;5.26;100.00;100769.78;4936946;29;20479;-71
2021/12/09 02:00:46;;;;;;;39.75;24.05;;;;;;;4.91;100.00;100773.91;4936367;29;20055;-72
2021/12/09 02:03:33;;;;;;;42.38;25.55;;;;;;;5.02;100.00;100774.84;4921884;29;20110;-71
2021/12/09 02:06:19;;;;;;;42.50;26.23;;;;;;;5.05;100.00;100772.28;4936547;29;20480;-72
2021/12/09 02:09:05;;;;;;;44.03;27.63;;;;;;;4.92;100.00;100764.41;4923202;29;20042;-72
2021/12/09 02:11:50;;;;;;;40.17;25.45;;;;;;;4.35;100.00;100766.59;4936603;29;20468;-72
2021/12/09 02:14:41;;;;;;;42.03;25.90;;;;;;;4.94;100.00;100780.84;4936993;29;20059;-72
2021/12/09 02:17:28;;;;;;;39.20;24.58;;;;;;;5.00;100.00;100776.59;4925097;29;20038;-72
2021/12/09 02:20:15;;;;;;;41.97;26.23;;;;;;;5.16;100.00;100785.31;4940525;29;20038;-71
2021/12/09 02:23:07;;;;;;;39.38;24.63;;;;;;;5.18;100.00;100780.97;4927306;29;20032;-71
2021/12/09 02:25:52;;;;;;;39.47;23.77;;;;;;;4.95;100.00;100791.25;4940166;29;20111;-72
2021/12/09 02:28:39;;;;;;;45.10;27.23;;;;;;;4.75;100.00;100790.25;4926757;29;20041;-72
2021/12/09 02:31:27;;;;;;;41.30;24.38;;;;;;;4.81;100.00;100777.31;4940182;29;20110;-71
2021/12/09 02:34:13;;;;;;;47.25;26.05;;;;;;;4.65;100.00;100772.00;4926656;29;20035;-71
2021/12/09 02:37:00;;;;;;;43.10;25.25;;;;;;;4.66;100.00;100771.13;4939615;29;20124;-72
2021/12/09 02:39:46;;;;;;;49.38;26.75;;;;;;;4.63;100.00;100777.19;4940228;29;20040;-71
2021/12/09 02:42:32;;;;;;;47.22;26.75;;;;;;;4.50;100.00;100767.56;4940248;29;20032;-72
2021/12/09 02:45:20;;;;;;;43.97;27.73;;;;;;;4.72;100.00;100778.97;4939821;29;20060;-72
2021/12/09 02:48:06;;;;;;;47.13;28.13;;;;;;;4.94;100.00;100781.72;4925992;29;20460;-71
2021/12/09 02:50:52;;;;;;;47.70;28.00;;;;;;;4.79;100.00;100791.16;4939345;29;20513;-71
2021/12/09 02:53:39;;;;;;;51.30;30.25;;;;;;;4.84;100.00;100789.44;4938850;29;20368;-71
2021/12/09 02:56:25;;;;;;;49.65;30.80;;;;;;;4.58;100.00;100784.06;4939326;29;20050;-72
2021/12/09 02:59:11;;;;;;;49.10;29.52;;;;;;;4.65;100.00;100791.06;4925295;29;20090;-70
2021/12/09 03:01:58;;;;;;;50.92;29.42;;;;;;;4.83;100.00;100787.72;4939825;29;20048;-70
2021/12/09 03:04:48;;;;;;;56.28;32.90;;;;;;;4.77;100.00;100788.53;4939519;29;20519;-71
2021/12/09 03:07:40;;;;;;;56.55;33.00;;;;;;;4.58;100.00;100785.78;4939627;29;20039;-72
2021/12/09 03:10:26;;;;;;;60.40;32.70;;;;;;;4.35;100.00;100783.00;4939518;29;20079;-71
2021/12/09 03:13:12;;;;;;;55.47;32.75;;;;;;;4.55;100.00;100780.59;4939420;29;20098;-71
2021/12/09 03:15:58;;;;;;;61.50;32.95;;;;;;;4.43;100.00;100780.50;4924942;29;20052;-71
2021/12/09 03:18:48;;;;;;;59.42;36.03;;;;;;;4.20;100.00;100774.25;4939017;29;20040;-74
2021/12/09 03:21:39;;;;;;;73.57;40.97;;;;;;;4.05;100.00;100782.75;4939187;29;20058;-71
2021/12/09 03:24:25;;;;;;;70.72;40.75;;;;;;;4.40;100.00;100777.88;4938962;29;20024;-70
2021/12/09 03:27:11;;;;;;;68.72;40.17;;;;;;;3.99;100.00;100792.19;4938729;29;20046;-72
2021/12/09 03:29:56;;;;;;;67.10;37.78;;;;;;;4.18;100.00;100782.00;4925303;29;20098;-71
2021/12/09 03:32:42;;;;;;;61.70;35.10;;;;;;;4.03;100.00;100793.97;4939364;29;20046;-70
2021/12/09 03:35:28;;;;;;;64.82;35.85;;;;;;;4.40;100.00;100770.97;4938455;29;20024;-71
2021/12/09 03:38:14;;;;;;;61.25;34.45;;;;;;;4.33;100.00;100779.53;4925344;29;20453;-71
2021/12/09 03:41:00;;;;;;;63.78;36.58;;;;;;;4.59;100.00;100777.16;4938277;29;20031;-71
2021/12/09 03:43:46;;;;;;;61.38;35.58;;;;;;;4.54;100.00;100773.66;4940008;29;20086;-71
2021/12/09 03:46:32;;;;;;;59.28;36.13;;;;;;;4.12;100.00;100768.13;4938833;29;20372;-71
2021/12/09 03:49:19;;;;;;;55.55;32.55;;;;;;;4.16;100.00;100768.16;4939012;29;20114;-71
2021/12/09 03:52:05;;;;;;;55.95;31.88;;;;;;;4.43;100.00;100762.34;4938280;29;20090;-71
2021/12/09 03:54:51;;;;;;;53.25;31.85;;;;;;;4.38;100.00;100754.50;4938900;29;20032;-72
2021/12/09 03:57:36;;;;;;;57.03;32.05;;;;;;;4.43;100.00;100749.38;4938257;29;20043;-72
2021/12/09 04:00:24;;;;;;;55.25;29.92;;;;;;;4.03;100.00;100749.91;4938148;29;20067;-71
2021/12/09 04:03:10;;;;;;;48.42;28.52;;;;;;;3.97;100.00;100748.09;4938141;29;20365;-72
2021/12/09 04:05:56;;;;;;;56.10;30.92;;;;;;;4.42;100.00;100745.91;4938766;29;20161;-71
2021/12/09 04:08:42;;;;;;;64.20;32.72;;;;;;;4.59;100.00;100746.88;4939251;29;20110;-71
2021/12/09 04:11:28;;;;;;;58.25;31.35;;;;;;;4.66;100.00;100751.25;4938107;29;20350;-71
2021/12/09 04:14:15;;;;;;;59.08;32.03;;;;;;;4.63;100.00;100740.00;4937902;29;20067;-72
2021/12/09 04:17:00;;;;;;;64.28;33.97;;;;;;;4.37;100.00;100745.00;4937684;29;20039;-71
2021/12/09 04:19:49;;;;;;;50.58;29.25;;;;;;;4.65;100.00;100756.44;4938057;29;20028;-72
2021/12/09 04:22:36;;;;;;;46.22;26.77;;;;;;;4.65;100.00;100751.25;4937537;29;20043;-71
2021/12/09 04:25:24;;;;;;;45.95;27.38;;;;;;;3.93;100.00;100758.41;4923938;29;20054;-70
2021/12/09 04:28:10;;;;;;;42.70;24.35;;;;;;;3.64;100.00;100767.63;4937559;29;20028;-71
2021/12/09 04:30:56;;;;;;;44.33;26.02;;;;;;;3.23;100.00;100772.31;4937611;29;20047;-70
2021/12/09 04:33:43;;;;;;;39.38;23.80;;;;;;;3.30;100.00;100775.84;4937419;29;20027;-71
2021/12/09 04:36:28;;;;;;;42.58;25.17;;;;;;;3.36;100.00;100775.91;4938576;29;20039;-71
2021/12/09 04:39:14;;;;;;;43.03;25.83;;;;;;;3.10;100.00;100769.56;4936941;29;20036;-72
2021/12/09 04:42:00;;;;;;;44.40;25.60;;;;;;;2.85;100.00;100785.59;4923738;29;20110;-70
2021/12/09 04:44:46;;;;;;;42.30;26.02;;;;;;;2.82;100.00;100786.41;4924316;29;20063;-71
2021/12/09 04:47:32;;;;;;;44.45;25.88;;;;;;;2.90;100.00;100787.38;4937768;29;20027;-71
2021/12/09 04:50:18;;;;;;;42.13;25.75;;;;;;;2.80;100.00;100789.81;4938611;29;20035;-72
2021/12/09 04:53:05;;;;;;;43.35;25.83;;;;;;;2.98;100.00;100784.91;4937564;29;20055;-72
2021/12/09 04:55:51;;;;;;;49.70;26.33;;;;;;;2.75;100.00;100783.72;4937154;29;20042;-72
2021/12/09 04:58:37;;;;;;;44.70;25.23;;;;;;;2.86;100.00;100792.50;4922859;29;20039;-71
2021/12/09 05:01:23;;;;;;;42.90;25.48;;;;;;;2.44;100.00;100789.25;4938007;29;20051;-71
2021/12/09 05:04:09;;;;;;;44.80;26.95;;;;;;;2.67;100.00;100783.59;4937965;29;20027;-72
2021/12/09 05:06:55;;;;;;;43.83;25.33;;;;;;;2.39;100.00;100796.06;4923255;29;20034;-72
2021/12/09 05:09:49;;;;;;;48.75;26.40;;;;;;;2.72;100.00;100792.28;4937768;29;20038;-72
2021/12/09 05:12:35;;;;;;;43.75;26.05;;;;;;;2.54;100.00;100796.31;4938070;29;20023;-72
2021/12/09 05:15:21;;;;;;;42.38;25.48;;;;;;;2.42;100.00;100786.66;4936935;29;20035;-71
2021/12/09 05:18:08;;;;;;;45.80;25.20;;;;;;;2.41;100.00;100796.97;4936962;29;20077;-72
2021/12/09 05:20:54;;;;;;;43.28;24.90;;;;;;;2.35;100.00;100799.44;4936765;29;20177;-71
2021/12/09 05:23:41;;;;;;;43.88;28.20;;;;;;;2.43;100.00;100809.06;4936399;29;20033;-72
2021/12/09 05:26:32;;;;;;;49.30;28.25;;;;;;;2.35;100.00;100813.25;4937355;29;20050;-71
2021/12/09 05:29:21;;;;;;;49.60;29.73;;;;;;;2.41;100.00;100797.81;4936482;29;20461;-73
2021/12/09 05:32:11;;;;;;;53.08;29.95;;;;;;;2.18;100.00;100808.63;4937837;29;20392;-72
2021/12/09 05:34:56;;;;;;;54.60;29.20;;;;;;;2.27;100.00;100809.66;4922389;29;20023;-71
2021/12/09 05:37:44;;;;;;;57.05;31.27;;;;;;;2.23;100.00;100813.03;4936487;29;20455;-72
2021/12/09 05:40:29;;;;;;;49.90;30.48;;;;;;;2.09;100.00;100822.25;4936810;29;20031;-71
2021/12/09 05:43:16;;;;;;;52.75;31.23;;;;;;;2.25;100.00;100821.69;4936656;29;20043;-72
2021/12/09 05:46:03;;;;;;;58.88;35.03;;;;;;;2.51;100.00;100825.59;4936312;29;20099;-71
2021/12/09 05:48:50;;;;;;;64.82;35.08;;;;;;;2.85;100.00;100833.00;4937072;29;20043;-71
2021/12/09 05:51:37;;;;;;;65.70;38.60;;;;;;;2.77;100.00;100836.34;4936818;29;20066;-72
2021/12/09 05:54:23;;;;;;;64.38;38.20;;;;;;;2.26;100.00;100851.00;4941748;29;20515;-72
2021/12/09 05:57:09;;;;;;;73.43;41.17;;;;;;;2.09;100.00;100860.16;4941369;29;20424;-72
2021/12/09 05:59:55;;;;;;;75.40;42.30;;;;;;;2.09;100.00;100858.41;4925992;29;20070;-71
2021/12/09 06:02:41;;;;;;;76.53;45.85;;;;;;;2.48;100.00;100856.56;4940275;29;20032;-72
2021/12/09 06:05:27;;;;;;;79.90;46.17;;;;;;;2.66;100.00;100851.69;4938822;29;20028;-72
2021/12/09 06:08:13;;;;;;;78.65;45.00;;;;;;;3.16;100.00;100862.81;4940310;29;20115;-71
2021/12/09 06:11:00;;;;;;;86.35;50.33;;;;;;;3.42;100.00;100858.88;4941423;28;20111;-71
2021/12/09 06:13:47;;;;;;;90.97;52.15;;;;;;;3.87;100.00;100864.63;4927078;29;20031;-71
2021/12/09 06:16:34;;;;;;;97.88;56.25;;;;;;;3.76;100.00;100861.91;4939608;29;20055;-72
2021/12/09 06:19:21;;;;;;;85.07;51.28;;;;;;;3.99;100.00;100860.44;4940262;29;20031;-72
2021/12/09 06:22:07;;;;;;;86.68;52.15;;;;;;;4.09;100.00;100862.28;4925878;29;20457;-72
2021/12/09 06:24:52;;;;;;;92.15;53.05;;;;;;;4.30;100.00;100872.03;4940256;29;20412;-71
2021/12/09 06:27:38;;;;;;;73.45;45.53;;;;;;;4.40;100.00;100879.03;4926701;29;20167;-72
2021/12/09 06:30:24;;;;;;;66.07;40.80;;;;;;;4.24;100.00;100879.72;4940729;29;20028;-72
2021/12/09 06:33:10;;;;;;;68.20;42.95;;;;;;;4.39;100.00;100878.13;4925907;29;20031;-72
2021/12/09 06:35:56;;;;;;;64.90;40.60;;;;;;;4.42;100.00;100873.00;4939574;29;20326;-72
2021/12/09 06:38:42;;;;;;;62.40;38.33;;;;;;;4.46;100.00;100882.53;4939723;29;20059;-72
2021/12/09 06:41:28;;;;;;;76.20;43.88;;;;;;;4.62;100.00;100888.72;4939950;29;20027;-72
2021/12/09 06:44:13;;;;;;;65.80;40.67;;;;;;;4.10;100.00;100895.13;4939726;29;20027;-72
2021/12/09 06:46:59;;;;;;;62.20;37.20;;;;;;;3.84;100.00;100877.53;4924453;29;20084;-71
2021/12/09 06:49:45;;;;;;;70.22;40.35;;;;;;;3.80;100.00;100865.41;4939259;29;20457;-71
2021/12/09 06:52:31;;;;;;;66.15;39.10;;;;;;;4.22;100.00;100864.16;4939001;29;20027;-72
2021/12/09 06:55:20;;;;;;;63.53;39.05;;;;;;;4.54;100.00;100852.34;4927201;29;20149;-72
2021/12/09 06:58:06;;;;;;;70.13;41.58;;;;;;;4.54;100.00;100851.47;4940087;29;20041;-72
2021/12/09 07:00:54;;;;;;;66.43;40.55;;;;;;;4.98;100.00;100850.97;4940358;28;20146;-72
2021/12/09 07:03:39;;;;;;;71.13;40.72;;;;;;;5.24;100.00;100843.38;4938407;29;20461;-71
2021/12/09 07:06:26;;;;;;;71.47;42.33;;;;;;;5.47;100.00;100845.22;4940036;29;20115;-71
2021/12/09 07:09:13;;;;;;;72.68;44.67;;;;;;;5.38;100.00;100846.03;4939469;29;20042;-72
2021/12/09 07:11:59;;;;;;;73.97;46.05;;;;;;;5.30;100.00;100838.19;4939515;29;20464;-72
2021/12/09 07:14:45;;;;;;;75.60;47.38;;;;;;;5.50;100.00;100833.13;4938992;29;20031;-72
2021/12/09 07:17:31;;;;;;;95.85;48.10;;;;;;;5.68;100.00;100834.06;4938558;29;20039;-72
2021/12/09 07:20:20;;;;;;;75.63;45.25;;;;;;;5.98;100.00;100835.94;4938715;29;20368;-72
2021/12/09 07:23:06;;;;;;;76.40;44.40;;;;;;;6.20;100.00;100845.50;4923983;29;20032;-71
2021/12/09 07:25:52;;;;;;;105.47;44.72;;;;;;;6.33;100.00;100855.06;4924223;29;20508;-72
2021/12/09 07:28:37;;;;;;;100.47;40.90;;;;;;;6.25;100.00;100851.59;4938409;29;20437;-72
2021/12/09 07:31:24;;;;;;;64.72;36.28;;;;;;;5.73;100.00;100839.25;4924483;29;20508;-72
2021/12/09 07:34:10;;;;;;;59.58;35.63;;;;;;;6.15;100.00;100852.44;4925017;29;20031;-71
2021/12/09 07:37:01;;;;;;;55.90;34.80;;;;;;;6.76;100.00;100854.25;4923880;29;20066;-72
2021/12/09 07:39:47;;;;;;;63.30;37.28;;;;;;;6.59;100.00;100854.22;4938432;29;20448;-71
2021/12/09 07:42:33;;;;;;;56.88;36.58;;;;;;;7.36;100.00;100847.22;4924048;29;20460;-72
2021/12/09 07:45:19;;;;;;;61.28;38.05;;;;;;;6.78;100.00;100850.78;4938124;29;20079;-72
2021/12/09 07:48:05;;;;;;;61.67;38.28;;;;;;;7.34;100.00;100853.31;4938815;29;20020;-72
2021/12/09 07:50:51;;;;;;;57.83;37.40;;;;;;;7.76;100.00;100869.69;4938329;29;20131;-72
2021/12/09 07:53:37;;;;;;;64.60;39.00;;;;;;;7.86;100.00;100878.34;4923662;29;20440;-72
2021/12/09 07:56:23;;;;;;;62.47;38.22;;;;;;;8.26;100.00;100883.41;4925162;29;20035;-73
2021/12/09 07:59:11;;;;;;;58.55;33.05;;;;;;;8.72;100.00;100887.44;4924349;29;20040;-73
2021/12/09 08:01:57;;;;;;;54.97;29.98;;;;;;;8.78;100.00;100879.59;4939132;29;20059;-72
2021/12/09 08:04:42;;;;;;;51.45;31.20;;;;;;;7.86;100.00;100891.38;4923685;29;20063;-72
2021/12/09 08:07:28;;;;;;;46.72;29.40;;;;;;;8.10;100.00;100896.50;4938457;29;20106;-72
2021/12/09 08:10:16;;;;;;;47.13;29.40;;;;;;;8.42;100.00;100890.28;4938161;29;20095;-72
2021/12/09 08:13:03;;;;;;;109.85;31.25;;;;;;;8.76;100.00;100901.38;4938192;29;20039;-72
2021/12/09 08:15:50;;;;;;;45.80;29.67;;;;;;;7.81;100.00;100914.00;4923236;29;20024;-72
2021/12/09 08:18:53;;;;;;;60.95;29.35;;;;;;;8.07;100.00;100907.81;4924787;29;20078;-72
2021/12/09 08:21:41;;;;;;;45.08;27.17;;;;;;;8.78;100.00;100897.88;4925039;29;20028;-72
2021/12/09 08:24:26;;;;;;;51.03;29.10;;;;;;;8.92;100.00;100897.75;4937872;29;20368;-72
2021/12/09 08:27:12;;;;;;;44.83;30.48;;;;;;;8.84;100.00;100883.91;4937127;29;20035;-72
2021/12/09 08:30:01;;;;;;;49.42;30.67;;;;;;;8.78;100.00;100889.16;4922710;29;20032;-71
2021/12/09 08:32:47;;;;;;;72.05;44.55;;;;;;;8.62;100.00;100883.19;4938151;29;20428;-71
2021/12/09 08:35:34;;;;;;;47.13;29.98;;;;;;;8.68;100.00;100879.66;4936440;29;20102;-72
2021/12/09 08:38:20;;;;;;;54.33;32.85;;;;;;;8.49;100.00;100868.44;4937714;29;20376;-71
2021/12/09 08:41:07;;;;;;;53.60;31.45;;;;;;;8.71;100.00;100859.59;4924348;29;20080;-72
2021/12/09 08:43:53;;;;;;;48.70;29.80;;;;;;;8.52;100.00;100863.22;4938280;29;20035;-71
2021/12/09 08:46:39;;;;;;;48.00;30.10;;;;;;;8.75;100.00;100863.03;4924892;29;20028;-72
2021/12/09 08:49:25;;;;;;;46.47;29.85;;;;;;;8.81;100.00;100857.78;4938000;29;20043;-72
2021/12/09 08:52:11;;;;;;;49.13;30.50;;;;;;;8.75;100.00;100850.84;4938243;29;20066;-72
2021/12/09 08:54:57;;;;;;;48.10;29.92;;;;;;;8.67;100.00;100837.00;4938252;29;20024;-72
2021/12/09 08:57:43;;;;;;;46.83;28.67;;;;;;;7.93;100.00;100841.81;4922876;29;20038;-72
2021/12/09 09:00:31;;;;;;;45.72;27.55;;;;;;;8.95;100.00;100828.03;4927667;29;20097;-72
2021/12/09 09:03:17;;;;;;;39.28;23.95;;;;;;;8.31;100.00;100829.44;4936785;29;20103;-71
2021/12/09 09:06:03;;;;;;;39.25;22.52;;;;;;;8.98;100.00;100809.72;4938032;28;20380;-71
2021/12/09 09:08:55;;;;;;;29.75;18.67;;;;;;;7.53;100.00;100797.63;4937845;29;20024;-73
2021/12/09 09:11:40;;;;;;;26.92;17.73;;;;;;;7.69;100.00;100808.00;4936646;29;20437;-72
2021/12/09 09:14:26;;;;;;;40.88;21.77;;;;;;;6.82;100.00;100792.63;4938709;28;20028;-72
2021/12/09 09:17:12;;;;;;;32.08;19.83;;;;;;;6.76;100.00;100803.06;4937787;28;20367;-72
2021/12/09 09:19:58;;;;;;;30.73;20.23;;;;;;;6.54;100.00;100800.44;4937496;29;20102;-73
2021/12/09 09:22:44;;;;;;;39.83;21.00;;;;;;;6.35;100.00;100802.16;4937736;28;20031;-72
2021/12/09 09:25:30;;;;;;;35.75;20.83;;;;;;;6.54;100.00;100790.03;4937845;28;20365;-71
2021/12/09 09:28:16;;;;;;;44.00;22.40;;;;;;;7.08;100.00;100779.56;4937092;29;20100;-72
2021/12/09 09:31:04;;;;;;;52.30;24.10;;;;;;;7.22;100.00;100785.56;4937759;29;20099;-71
2021/12/09 09:33:49;;;;;;;52.58;24.95;;;;;;;6.96;100.00;100783.06;4937104;29;20035;-72
2021/12/09 09:36:39;;;;;;;52.08;26.15;;;;;;;7.41;100.00;100776.84;4937062;29;20052;-71
2021/12/09 09:39:29;;;;;;;57.20;24.33;;;;;;;7.07;100.00;100776.06;4938630;29;20035;-71
2021/12/09 09:45:01;;;;;;;53.00;24.85;;;;;;;6.59;100.00;100772.69;4937525;28;20035;-72
2021/12/09 09:47:47;;;;;;;57.55;24.55;;;;;;;7.04;100.00;100770.00;4937067;29;20118;-72
2021/12/09 09:50:33;;;;;;;53.92;23.73;;;;;;;6.12;100.00;100767.47;4937719;28;20062;-71
2021/12/09 09:53:19;;;;;;;55.17;23.38;;;;;;;6.54;100.00;100758.78;4937881;28;20035;-72
2021/12/09 09:56:13;;;;;;;53.17;23.10;;;;;;;6.58;100.00;100765.72;4936456;29;20039;-73
2021/12/09 09:59:03;;;;;;;57.67;22.73;;;;;;;6.88;100.00;100768.31;4937174;29;20038;-72
2021/12/09 10:01:52;;;;;;;49.85;21.65;;;;;;;7.15;100.00;100755.22;4937846;28;20048;-71
2021/12/09 10:04:46;;;;;;;70.97;22.95;;;;;;;6.76;100.00;100765.72;4935867;29;20058;-71
2021/12/09 10:07:33;;;;;;;42.25;19.33;;;;;;;7.27;100.00;100763.84;4936569;29;20126;-70
2021/12/09 10:10:19;;;;;;;32.00;17.60;;;;;;;7.14;100.00;100772.59;4936873;29;20107;-72
2021/12/09 10:13:07;;;;;;;30.27;16.95;;;;;;;7.12;100.00;100769.09;4937351;29;20028;-72
2021/12/09 10:15:54;;;;;;;29.15;17.70;;;;;;;7.22;100.00;100765.63;4936371;29;20409;-72
2021/12/09 10:18:43;;;;;;;34.40;21.02;;;;;;;7.56;100.00;100771.56;4937367;28;20479;-71
2021/12/09 10:21:30;;;;;;;36.67;20.92;;;;;;;7.72;100.00;100768.88;4936983;29;20027;-72
2021/12/09 10:24:16;;;;;;;40.83;21.02;;;;;;;8.08;100.00;100768.66;4937964;28;20140;-72
2021/12/09 10:27:04;;;;;;;43.58;20.50;;;;;;;8.44;100.00;100757.97;4938277;28;20032;-72
2021/12/09 10:29:55;;;;;;;43.58;20.85;;;;;;;8.74;100.00;100760.31;4937298;29;20050;-72
2021/12/09 10:32:42;;;;;;;59.17;22.98;;;;;;;8.27;100.00;100751.16;4936619;29;20038;-72
2021/12/09 10:35:28;;;;;;;59.97;22.10;;;;;;;8.23;100.00;100752.94;4936552;29;20373;-73
2021/12/09 10:38:14;;;;;;;67.28;22.42;;;;;;;7.62;100.00;100748.94;4938756;29;20083;-73
2021/12/09 10:41:00;;;;;;;78.80;24.45;;;;;;;7.60;100.00;100731.56;4940658;28;20028;-71
2021/12/09 10:43:50;;;;;;;98.57;25.63;;;;;;;7.72;100.00;100715.88;4940373;29;20027;-72
2021/12/09 10:47:05;;;;;;;59.65;23.88;;;;;;;7.47;100.00;100709.06;4939834;29;20028;-72
2021/12/09 10:50:15;;;;;;;55.55;23.60;;;;;;;7.76;100.00;100701.94;4941758;28;20031;-72
2021/12/09 10:56:09;;;;;;;45.10;22.13;;;;;;;7.71;100.00;100698.47;4940357;28;20031;-72
2021/12/09 10:58:56;;;;;;;46.17;24.75;;;;;;;7.87;100.00;100705.31;4939949;29;20103;-71
2021/12/09 11:01:42;;;;;;;56.95;23.92;;;;;;;8.06;100.00;100699.97;4941762;29;20039;-72
2021/12/09 11:04:27;;;;;;;44.47;22.02;;;;;;;8.00;100.00;100700.00;4940122;28;20402;-72
2021/12/09 11:07:27;;;;;;;35.63;20.80;;;;;;;8.34;100.00;100703.25;4939595;29;20121;-72
2021/12/09 11:10:17;;;;;;;39.97;20.20;;;;;;;8.47;100.00;100704.84;4939546;29;20460;-71
2021/12/09 11:13:06;;;;;;;41.30;21.83;;;;;;;8.24;100.00;100699.00;4939871;29;20130;-71
2021/12/09 11:15:56;;;;;;;42.45;21.20;;;;;;;9.08;100.00;100698.97;4939156;29;20429;-72
2021/12/09 11:18:45;;;;;;;32.88;18.92;;;;;;;8.78;100.00;100701.06;4939633;29;20470;-72
2021/12/09 11:21:34;;;;;;;28.88;18.27;;;;;;;8.75;100.00;100698.47;4940569;28;20028;-71
2021/12/09 11:24:26;;;;;;;30.45;18.88;;;;;;;8.82;100.00;100679.25;4939630;29;20078;-71
2021/12/09 11:27:15;;;;;;;31.80;19.17;;;;;;;8.39;100.00;100665.78;4939246;29;20055;-72
2021/12/09 11:30:15;;;;;;;39.08;21.27;;;;;;;8.48;100.00;100657.84;4939812;28;20027;-71
2021/12/09 11:33:02;;;;;;;31.88;19.95;;;;;;;8.59;100.00;100665.56;4939447;29;20036;-72
2021/12/09 11:35:48;;;;;;;35.25;21.05;;;;;;;8.68;100.00;100670.72;4939212;29;20023;-73
2021/12/09 11:38:54;;;;;;;30.60;20.58;;;;;;;7.86;100.00;100662.72;4939551;29;20130;-72
2021/12/09 11:41:42;;;;;;;39.42;22.80;;;;;;;8.00;100.00;100665.25;4939496;29;20444;-73
2021/12/09 11:44:27;;;;;;;38.05;23.85;;;;;;;8.35;100.00;100681.47;4939406;29;20036;-72
2021/12/09 11:47:14;;;;;;;39.75;24.73;;;;;;;8.54;100.00;100676.09;4938752;29;20039;-72
2021/12/09 11:50:00;;;;;;;56.28;28.23;;;;;;;8.23;100.00;100676.38;4940718;28;20067;-72
2021/12/09 11:52:50;;;;;;;59.92;30.40;;;;;;;7.96;100.00;100689.63;4938662;29;20111;-72
2021/12/09 11:55:42;;;;;;;55.10;30.38;;;;;;;7.96;100.00;100687.00;4938034;29;20032;-71
2021/12/09 11:58:32;;;;;;;66.43;33.60;;;;;;;8.07;100.00;100690.38;4938726;29;20166;-71
2021/12/09 12:11:25;;;;;;;54.08;30.35;;;;;;;7.19;100.00;100687.44;4938445;29;20054;-73
2021/12/09 12:14:44;;;;;;;57.17;30.55;;;;;;;7.21;100.00;100687.44;4938479;29;20484;-72
2021/12/09 12:36:18;;;;;;;52.58;30.75;;;;;;;6.92;100.00;100681.50;4938037;29;20024;-72
2021/12/09 12:39:14;;;;;;;50.67;28.83;;;;;;;7.55;100.00;100670.78;4937245;29;20036;-71
2021/12/09 12:42:09;;;;;;;52.95;29.70;;;;;;;7.38;100.00;100683.03;4936686;29;20372;-72
2021/12/09 12:45:26;;;;;;;53.95;30.83;;;;;;;7.35;100.00;100691.72;4937344;29;20050;-72
2021/12/09 12:48:42;;;;;;;59.38;31.83;;;;;;;7.23;100.00;100688.31;4937595;29;20099;-71
2021/12/09 12:51:38;;;;;;;64.35;32.40;;;;;;;7.19;100.00;100689.22;4937460;29;20086;-71
2021/12/09 12:54:38;;;;;;;54.50;29.95;;;;;;;7.06;100.00;100682.28;4938111;29;20023;-71
2021/12/09 12:57:38;;;;;;;59.45;30.30;;;;;;;7.05;100.00;100677.97;4923802;29;20032;-71
2021/12/09 13:00:31;;;;;;;57.72;30.80;;;;;;;6.79;100.00;100672.00;4938193;28;20126;-71
2021/12/09 13:03:32;;;;;;;60.83;30.00;;;;;;;6.65;100.00;100668.56;4937304;29;20044;-73
2021/12/09 13:06:39;;;;;;;67.95;32.63;;;;;;;6.71;100.00;100686.78;4937286;29;20035;-72
2021/12/09 13:09:41;;;;;;;76.88;33.95;;;;;;;6.92;100.00;100692.78;4938757;28;20171;-72
2021/12/09 13:12:44;;;;;;;62.58;30.70;;;;;;;6.94;100.00;100690.16;4936890;29;20063;-72
2021/12/09 13:15:39;;;;;;;61.30;31.58;;;;;;;6.69;100.00;100686.78;4938542;28;20027;-71
2021/12/09 13:18:48;;;;;;;59.20;29.25;;;;;;;6.72;100.00;100678.97;4937237;29;20039;-72